createdAt,value
2023-01-04T00:01:23.394Z,96.70
2023-01-04T00:03:51.596Z,96.60
2023-01-04T00:06:20.274Z,96.60
2023-01-04T00:08:48.129Z,96.70
2023-01-04T00:11:18.200Z,96.80
2023-01-04T00:13:47.168Z,96.90
2023-01-04T00:16:17.042Z,97.00
2023-01-04T00:18:44.693Z,97.10
2023-01-04T00:21:13.743Z,97.00
2023-01-04T00:23:43.059Z,97.40
2023-01-04T00:26:13.404Z,97.50
2023-01-04T00:28:41.011Z,97.60
2023-01-04T00:31:11.672Z,97.50
2023-01-04T00:33:39.601Z,97.80
2023-01-04T00:36:13.406Z,97.80
2023-01-04T00:38:41.622Z,98.00
2023-01-04T00:41:23.107Z,98.00
2023-01-04T00:43:55.569Z,98.10
2023-01-04T00:46:22.973Z,98.10
2023-01-04T00:48:51.828Z,98.20
2023-01-04T00:51:22.944Z,97.90
2023-01-04T00:53:50.523Z,98.20
2023-01-04T00:56:18.196Z,98.10
2023-01-04T00:58:45.620Z,98.10
2023-01-04T01:01:13.192Z,98.10
2023-01-04T01:03:41.122Z,97.80
2023-01-04T01:06:08.685Z,98.00
2023-01-04T01:08:36.123Z,98.00
2023-01-04T01:11:06.525Z,97.90
2023-01-04T01:13:35.105Z,97.80
2023-01-04T01:16:05.211Z,98.00
2023-01-04T01:18:33.583Z,97.90
2023-01-04T01:21:03.919Z,97.80
2023-01-04T01:23:31.887Z,97.80
2023-01-04T01:26:04.444Z,97.60
2023-01-04T01:28:31.846Z,97.60
2023-01-04T01:31:08.479Z,97.50
2023-01-04T01:33:38.216Z,97.50
2023-01-04T01:36:06.986Z,97.50
2023-01-04T01:38:35.972Z,97.50
2023-01-04T01:41:04.606Z,97.60
2023-01-04T01:43:56.096Z,97.70
2023-01-04T01:46:49.232Z,97.90
2023-01-04T01:49:28.542Z,98.00
2023-01-04T01:51:59.742Z,98.20
2023-01-04T01:54:32.711Z,98.50
2023-01-04T01:57:02.348Z,98.50
2023-01-04T01:59:31.933Z,98.60
2023-01-04T02:01:59.475Z,98.70
2023-01-04T02:04:27.385Z,98.60
2023-01-04T02:06:58.189Z,98.90
2023-01-04T02:09:25.928Z,98.90
2023-01-04T02:11:53.459Z,98.80
2023-01-04T02:14:27.350Z,98.90
2023-01-04T02:17:05.254Z,99.00
2023-01-04T02:19:56.648Z,98.90
2023-01-04T02:22:42.086Z,98.90
2023-01-04T02:25:18.547Z,98.90
2023-01-04T02:28:04.078Z,98.90
2023-01-04T02:31:09.185Z,98.90
2023-01-04T02:34:14.592Z,99.00
2023-01-04T02:37:03.294Z,99.00
2023-01-04T02:39:43.527Z,99.00
2023-01-04T02:42:47.105Z,99.00
2023-01-04T02:45:18.078Z,99.00
2023-01-04T02:48:04.776Z,99.00
2023-01-04T02:50:51.530Z,99.10
2023-01-04T02:53:22.716Z,99.10
2023-01-04T02:56:19.959Z,99.00
2023-01-04T02:58:53.192Z,99.00
2023-01-04T03:02:09.623Z,99.00
2023-01-04T03:05:06.702Z,99.00
2023-01-04T03:07:55.369Z,99.00
2023-01-04T03:10:36.925Z,99.00
2023-01-04T03:13:25.946Z,99.00
2023-01-04T03:16:09.209Z,99.00
2023-01-04T03:18:44.070Z,98.80
2023-01-04T03:21:14.821Z,99.40
2023-01-04T03:24:04.067Z,99.00
2023-01-04T03:26:53.919Z,99.00
2023-01-04T03:29:39.782Z,99.00
2023-01-04T03:32:31.357Z,98.90
2023-01-04T03:35:34.674Z,98.90
2023-01-04T03:38:45.513Z,98.90
2023-01-04T03:41:40.552Z,98.90
2023-01-04T03:44:46.922Z,98.80
2023-01-04T03:47:49.105Z,98.80
2023-01-04T03:50:27.512Z,98.80
2023-01-04T03:52:57.197Z,98.80
2023-01-04T03:55:27.217Z,98.50
2023-01-04T03:57:58.330Z,98.90
2023-01-04T04:05:18.090Z,99.10
2023-01-04T04:08:06.235Z,99.00
2023-01-04T04:10:33.562Z,98.80
2023-01-04T04:13:59.699Z,98.80
2023-01-04T04:17:20.687Z,99.10
2023-01-04T04:22:51.536Z,98.70
2023-01-04T04:25:39.641Z,98.40
2023-01-04T04:28:10.562Z,99.00
2023-01-04T04:30:43.128Z,99.30
2023-01-04T04:33:45.331Z,98.60
2023-01-04T04:36:29.138Z,98.30
2023-01-04T04:39:06.285Z,98.30
2023-01-04T04:45:05.978Z,98.70
2023-01-04T04:47:59.054Z,98.60
2023-01-04T04:50:26.725Z,98.60
2023-01-04T04:52:56.381Z,98.40
2023-01-04T04:55:24.110Z,98.40
2023-01-04T04:57:51.939Z,98.40
2023-01-04T05:00:19.487Z,98.50
2023-01-04T05:02:47.193Z,98.50
2023-01-04T05:05:15.524Z,98.70
2023-01-04T05:07:43.467Z,98.40
2023-01-04T05:10:11.257Z,98.40
2023-01-04T05:12:58.089Z,99.00
2023-01-04T05:15:34.285Z,98.50
2023-01-04T05:18:02.044Z,98.80
2023-01-04T05:20:29.420Z,98.60
2023-01-04T05:22:56.771Z,98.90
2023-01-04T05:25:24.920Z,98.40
2023-01-04T05:27:53.256Z,98.70
2023-01-04T05:30:39.482Z,98.50
2023-01-04T05:33:07.904Z,98.40
2023-01-04T05:35:35.924Z,98.40
2023-01-04T05:38:04.343Z,98.60
2023-01-04T05:40:32.319Z,99.00
2023-01-04T05:42:59.908Z,98.50
2023-01-04T05:45:27.391Z,98.50
2023-01-04T05:47:55.167Z,98.40
2023-01-04T05:50:24.079Z,98.70
2023-01-04T05:52:53.187Z,98.40
2023-01-04T05:55:21.272Z,98.70
2023-01-04T05:57:49.066Z,98.50
2023-01-04T06:00:17.176Z,98.30
2023-01-04T06:02:45.196Z,98.50
2023-01-04T06:05:13.154Z,98.40
2023-01-04T06:07:41.494Z,98.30
2023-01-04T06:10:11.368Z,98.30
2023-01-04T06:12:39.236Z,98.50
2023-01-04T06:15:08.268Z,98.50
2023-01-04T06:17:37.278Z,98.30
2023-01-04T06:20:06.686Z,98.50
2023-01-04T06:22:35.955Z,98.10
2023-01-04T06:34:52.653Z,98.40
2023-01-04T06:37:51.378Z,97.80
2023-01-04T06:40:35.992Z,97.60
2023-01-04T06:43:03.869Z,98.40
2023-01-04T06:45:48.628Z,97.80
2023-01-04T06:58:07.733Z,98.40
2023-01-04T07:00:35.413Z,98.10
2023-01-04T07:03:13.608Z,98.50
2023-01-04T07:05:56.763Z,98.90
2023-01-04T07:08:26.095Z,99.00
2023-01-04T07:10:53.416Z,98.90
2023-01-04T07:16:30.167Z,99.20
2023-01-04T07:19:01.942Z,98.90
2023-01-04T07:22:19.045Z,98.70
2023-01-04T07:29:13.954Z,98.70
2023-01-04T07:35:29.903Z,99.00
2023-01-04T07:38:16.221Z,98.90
2023-01-04T07:42:05.221Z,98.60
2023-01-04T07:48:26.175Z,98.30
2023-01-04T07:57:36.173Z,98.80
2023-01-04T08:00:04.952Z,98.50
2023-01-04T08:03:30.486Z,98.50
2023-01-04T08:05:57.736Z,98.90
2023-01-04T08:12:10.959Z,98.80
2023-01-04T08:20:08.329Z,98.70
2023-01-04T08:29:10.066Z,98.70
2023-01-04T08:31:38.129Z,98.90
2023-01-04T08:34:08.371Z,98.60
2023-01-04T08:36:44.581Z,98.40
2023-01-04T08:47:52.368Z,98.40
2023-01-04T08:54:09.483Z,98.50
2023-01-04T08:57:12.529Z,98.50
2023-01-04T08:59:45.477Z,98.10
2023-01-04T09:07:08.186Z,98.40
2023-01-04T09:13:43.957Z,98.50
2023-01-04T09:23:38.640Z,97.80
2023-01-04T09:26:54.293Z,98.10
2023-01-04T09:29:21.731Z,98.60
2023-01-04T09:32:18.424Z,98.20
2023-01-04T09:42:00.389Z,98.70
2023-01-04T09:50:59.212Z,98.60
2023-01-04T09:53:32.387Z,98.70
2023-01-04T09:56:14.222Z,98.40
2023-01-04T10:11:20.702Z,98.50
2023-01-04T10:21:20.801Z,98.60
2023-01-04T10:29:39.116Z,98.90
2023-01-04T10:41:27.116Z,98.50
2023-01-04T10:50:12.136Z,98.70
2023-01-04T10:53:22.970Z,98.50
2023-01-04T11:06:02.889Z,98.50
2023-01-04T11:21:14.510Z,98.40
2023-01-04T11:27:07.506Z,98.40
2023-01-04T11:33:11.381Z,98.30
2023-01-04T11:45:05.184Z,98.30
2023-01-04T12:32:30.108Z,98.60
2023-01-04T12:35:00.318Z,98.50
2023-01-04T12:40:50.756Z,98.60
2023-01-04T12:49:42.217Z,98.50
2023-01-04T12:52:32.328Z,98.50
2023-01-04T12:55:24.672Z,98.50
2023-01-04T12:57:52.372Z,98.50
2023-01-04T13:00:47.204Z,98.60
2023-01-04T13:09:48.212Z,98.40
2023-01-04T13:15:36.396Z,98.40
2023-01-04T13:25:02.466Z,98.40
2023-01-04T13:27:30.382Z,98.40
2023-01-04T13:30:30.248Z,98.30
2023-01-04T13:33:25.413Z,98.30
2023-01-04T13:39:01.635Z,98.30
2023-01-04T13:45:25.542Z,98.30
2023-01-04T13:54:33.249Z,98.30
2023-01-04T14:06:33.159Z,98.20
2023-01-04T14:12:47.933Z,98.10
2023-01-04T14:15:25.995Z,98.20
2023-01-04T14:20:56.879Z,98.10
2023-01-04T14:39:07.799Z,97.90
2023-01-04T14:41:39.745Z,97.70
2023-01-04T14:44:21.641Z,97.70
2023-01-04T14:53:09.641Z,97.70
2023-01-04T14:58:39.171Z,97.60
2023-01-04T15:01:08.021Z,97.40
2023-01-04T15:13:06.288Z,97.30
2023-01-04T15:15:39.223Z,97.50
2023-01-04T15:18:10.690Z,97.30
2023-01-04T15:40:22.567Z,97.50
2023-01-04T15:49:59.810Z,97.50
2023-01-04T15:58:47.512Z,97.50
2023-01-04T16:01:16.601Z,97.30
2023-01-04T16:03:49.868Z,97.40
2023-01-04T16:06:21.515Z,97.30
2023-01-04T16:15:03.753Z,97.50
2023-01-04T16:17:32.219Z,97.40
2023-01-04T16:20:01.132Z,97.50
2023-01-04T16:22:30.364Z,97.50
2023-01-04T16:25:13.732Z,97.80
2023-01-04T16:27:48.581Z,97.70
2023-01-04T16:30:24.471Z,97.70
2023-01-04T17:38:14.877Z,97.80
2023-01-04T17:40:43.780Z,97.70
2023-01-04T17:49:35.092Z,97.90
2023-01-04T17:52:07.102Z,97.70
2023-01-04T17:54:37.163Z,97.80
2023-01-04T17:57:05.807Z,97.60
2023-01-04T18:02:42.933Z,97.90
2023-01-04T18:05:11.714Z,97.90
2023-01-04T18:07:42.252Z,97.70
2023-01-04T18:10:20.751Z,97.90
2023-01-04T18:12:48.896Z,97.90
2023-01-04T18:15:16.795Z,97.80
2023-01-04T18:17:44.716Z,97.80
2023-01-04T18:20:24.092Z,98.00
2023-01-04T18:22:52.960Z,97.90
2023-01-04T18:25:20.671Z,98.40
2023-01-04T18:27:52.821Z,98.40
2023-01-04T18:30:23.064Z,98.50
2023-01-04T18:39:13.390Z,98.60
2023-01-04T18:41:41.545Z,98.60
2023-01-04T18:50:08.555Z,98.70
2023-01-04T18:52:42.214Z,98.80
2023-01-04T19:08:23.194Z,99.50
2023-01-04T19:10:52.277Z,99.20
2023-01-04T19:13:20.766Z,99.20
2023-01-04T19:15:50.061Z,99.20
2023-01-04T19:18:18.000Z,99.20
2023-01-04T19:20:45.873Z,99.40
2023-01-04T19:23:13.841Z,99.40
2023-01-04T19:41:27.696Z,99.60
2023-01-04T20:09:24.733Z,99.90
2023-01-04T20:18:13.842Z,99.90
2023-01-04T20:38:21.657Z,99.90
2023-01-04T20:42:06.123Z,99.90
2023-01-04T20:44:34.645Z,99.90
2023-01-04T21:07:46.955Z,99.90
2023-01-04T21:10:27.771Z,99.90
2023-01-04T22:09:39.483Z,99.90
2023-01-04T22:12:08.587Z,99.90
2023-01-04T22:14:40.600Z,99.90
2023-01-04T22:20:42.407Z,99.90
2023-01-04T22:26:30.775Z,99.90
2023-01-04T22:32:10.923Z,99.90
2023-01-04T22:34:42.303Z,99.90
2023-01-04T22:37:11.043Z,99.90
2023-01-04T22:39:39.335Z,99.90
2023-01-04T22:42:07.698Z,99.90
2023-01-04T22:44:36.611Z,99.90
2023-01-04T22:47:05.040Z,99.90
2023-01-04T22:49:33.607Z,99.90
2023-01-04T22:52:02.753Z,99.90
2023-01-04T22:54:33.206Z,99.90
2023-01-04T22:57:01.929Z,99.90
2023-01-04T22:59:30.245Z,99.90
2023-01-04T23:01:59.264Z,99.90
2023-01-04T23:32:31.975Z,99.90
2023-01-04T23:34:59.550Z,99.90
2023-01-04T23:37:27.218Z,99.90
2023-01-04T23:39:54.923Z,99.90
2023-01-04T23:42:22.448Z,99.90
2023-01-04T23:44:50.684Z,99.90
2023-01-04T23:47:18.296Z,99.90
2023-01-04T23:49:46.516Z,99.90
2023-01-04T23:52:13.945Z,99.90
2023-01-04T23:54:41.469Z,99.90
2023-01-04T23:57:08.923Z,99.90
2023-01-04T23:59:36.679Z,99.90
